El Paso, TX (88545)

11:00 AM MST on February 08, 2016 (GMT -0700)
Shock | | Change Station
CLOSE
Current Station
Personal Weather Station
Location: El Paso, TX
Elevation: 3924 ft
Nearby Weather Stations

Elev 3924 ft 31.76 °N, 106.33 °W | Updated 5 minutes ago

Mostly Cloudy
Mostly Cloudy
53.1 °F
Feels Like 53.1 °F
N
6.8
Wind Variable Wind from SE

Today
High -- | Low -- °F
--% Chance of Precip.
Yesterday
High -- | Low -- °F
Precip. -- in
Pressure 30.39 in
Visibility 10.0 miles
Clouds Mostly Cloudy 25000 ft
Dew Point 17 °F
Humidity 24%
Rainfall 0.00 in
Snow Depth Not available.
6:53 AM 5:45 PM
New Moon, 0% visible
METAR KELP 081751Z 07003KT 10SM BKN250 09/M08 A3045 RMK AO2 SLP291 T00941078 10094 20022 50006
Pressure 30.39 in
Visibility 10.0 miles
Clouds Mostly Cloudy 25000 ft
Dew Point 17 °F
Humidity 24%
Rainfall 0.00 in
Snow Depth Not available.
6:53 AM 5:45 PM
New Moon, 0% visible
METAR KELP 081751Z 07003KT 10SM BKN250 09/M08 A3045 RMK AO2 SLP291 T00941078 10094 20022 50006

10-Day Weather Forecast

Almanac

Astronomy

Feb. 08, 2016 Rise Set
Actual Time
Civil Twilight
Nautical Twilight
Astronomical Twilight
Moon
Length of Visible Light
Length of Day
Tomorrow will be .
, % of the Moon is Illuminated

Today's Extremes

State Highs State Lows

Community

WunderPhotos

Upload Photos

1,891,476 photos uploaded!

WunderBlog® & News

Nearby

Air Quality

  Air Quality AQ Index Pollutant
Not available.

Snow Depth

Station Depth Elevation

Earthquake Activity

City Distance Mag. Time & Date
Minimum magnitude displayed is 2.5.

Coastal Water Temperatures

Place Temperature

Stations

Nearby Weather Stations

Station Location Temp. Windchill Dew Point Humidity Wind Precip. Elev Updated Type
                   

Watches & Warnings

There are currently no watches in effect.